sensor_id;sensor_type;location;lat;lon;timestamp;P1;durP1;ratioP1;P2;durP2;ratioP2
8622;SDS011;4349;47.552;8.904;2023-04-26T00:01:00;1.90;;;1.90;;
8622;SDS011;4349;47.552;8.904;2023-04-26T00:03:29;2.60;;;2.10;;
8622;SDS011;4349;47.552;8.904;2023-04-26T00:05:58;1.97;;;1.87;;
8622;SDS011;4349;47.552;8.904;2023-04-26T00:08:26;1.80;;;1.80;;
8622;SDS011;4349;47.552;8.904;2023-04-26T00:10:53;2.07;;;1.97;;
8622;SDS011;4349;47.552;8.904;2023-04-26T00:13:20;1.97;;;1.87;;
8622;SDS011;4349;47.552;8.904;2023-04-26T00:15:49;2.10;;;2.00;;
8622;SDS011;4349;47.552;8.904;2023-04-26T00:18:17;2.03;;;1.97;;
8622;SDS011;4349;47.552;8.904;2023-04-26T00:20:44;1.87;;;1.80;;
8622;SDS011;4349;47.552;8.904;2023-04-26T00:23:11;2.10;;;2.00;;
8622;SDS011;4349;47.552;8.904;2023-04-26T00:25:39;2.87;;;2.77;;
8622;SDS011;4349;47.552;8.904;2023-04-26T00:28:07;2.10;;;2.00;;
8622;SDS011;4349;47.552;8.904;2023-04-26T00:30:34;2.10;;;2.10;;
8622;SDS011;4349;47.552;8.904;2023-04-26T00:33:04;2.00;;;1.90;;
8622;SDS011;4349;47.552;8.904;2023-04-26T00:35:31;2.17;;;2.07;;
8622;SDS011;4349;47.552;8.904;2023-04-26T00:37:58;2.23;;;2.13;;
8622;SDS011;4349;47.552;8.904;2023-04-26T00:40:26;1.97;;;1.93;;
8622;SDS011;4349;47.552;8.904;2023-04-26T00:42:55;1.73;;;1.73;;
8622;SDS011;4349;47.552;8.904;2023-04-26T00:45:23;2.00;;;2.00;;
8622;SDS011;4349;47.552;8.904;2023-04-26T00:47:50;2.30;;;2.20;;
8622;SDS011;4349;47.552;8.904;2023-04-26T00:50:20;1.83;;;1.77;;
8622;SDS011;4349;47.552;8.904;2023-04-26T00:52:47;2.07;;;1.90;;
8622;SDS011;4349;47.552;8.904;2023-04-26T00:55:15;1.90;;;1.90;;
8622;SDS011;4349;47.552;8.904;2023-04-26T00:57:43;2.10;;;2.00;;
8622;SDS011;4349;47.552;8.904;2023-04-26T01:00:14;2.30;;;2.20;;
8622;SDS011;4349;47.552;8.904;2023-04-26T01:02:42;2.07;;;2.07;;
8622;SDS011;4349;47.552;8.904;2023-04-26T01:05:10;2.10;;;2.07;;
8622;SDS011;4349;47.552;8.904;2023-04-26T01:07:38;2.20;;;2.10;;
8622;SDS011;4349;47.552;8.904;2023-04-26T01:10:06;2.10;;;2.03;;
8622;SDS011;4349;47.552;8.904;2023-04-26T01:12:34;2.20;;;2.10;;
8622;SDS011;4349;47.552;8.904;2023-04-26T01:15:02;2.00;;;2.00;;
8622;SDS011;4349;47.552;8.904;2023-04-26T01:17:31;2.33;;;2.23;;
8622;SDS011;4349;47.552;8.904;2023-04-26T01:19:59;2.20;;;2.10;;
8622;SDS011;4349;47.552;8.904;2023-04-26T01:22:26;2.77;;;2.60;;
8622;SDS011;4349;47.552;8.904;2023-04-26T01:24:55;2.40;;;2.20;;
8622;SDS011;4349;47.552;8.904;2023-04-26T01:27:24;2.10;;;2.10;;
8622;SDS011;4349;47.552;8.904;2023-04-26T01:29:52;2.20;;;2.10;;
8622;SDS011;4349;47.552;8.904;2023-04-26T01:32:19;2.27;;;2.23;;
8622;SDS011;4349;47.552;8.904;2023-04-26T01:34:48;2.47;;;2.30;;
8622;SDS011;4349;47.552;8.904;2023-04-26T01:37:17;2.33;;;2.23;;
8622;SDS011;4349;47.552;8.904;2023-04-26T01:39:44;1.97;;;1.87;;
8622;SDS011;4349;47.552;8.904;2023-04-26T01:42:13;2.40;;;2.30;;
8622;SDS011;4349;47.552;8.904;2023-04-26T01:44:40;2.27;;;2.17;;
8622;SDS011;4349;47.552;8.904;2023-04-26T01:47:08;2.40;;;2.27;;
8622;SDS011;4349;47.552;8.904;2023-04-26T01:49:35;2.13;;;2.03;;
8622;SDS011;4349;47.552;8.904;2023-04-26T01:52:03;2.33;;;2.23;;
8622;SDS011;4349;47.552;8.904;2023-04-26T01:54:30;2.30;;;2.20;;
8622;SDS011;4349;47.552;8.904;2023-04-26T01:56:58;2.40;;;2.30;;
8622;SDS011;4349;47.552;8.904;2023-04-26T01:59:27;2.10;;;2.00;;
8622;SDS011;4349;47.552;8.904;2023-04-26T02:01:57;2.20;;;2.10;;
8622;SDS011;4349;47.552;8.904;2023-04-26T02:04:24;2.20;;;2.20;;
8622;SDS011;4349;47.552;8.904;2023-04-26T02:06:53;2.20;;;2.10;;
8622;SDS011;4349;47.552;8.904;2023-04-26T02:09:22;2.43;;;2.33;;
8622;SDS011;4349;47.552;8.904;2023-04-26T02:11:49;2.10;;;2.00;;
8622;SDS011;4349;47.552;8.904;2023-04-26T02:14:17;2.23;;;2.13;;
8622;SDS011;4349;47.552;8.904;2023-04-26T02:16:48;2.03;;;2.03;;
8622;SDS011;4349;47.552;8.904;2023-04-26T02:19:16;2.27;;;2.23;;
8622;SDS011;4349;47.552;8.904;2023-04-26T02:21:51;2.53;;;2.40;;
8622;SDS011;4349;47.552;8.904;2023-04-26T02:24:19;2.20;;;2.20;;
8622;SDS011;4349;47.552;8.904;2023-04-26T02:26:46;2.20;;;2.20;;
8622;SDS011;4349;47.552;8.904;2023-04-26T02:29:14;2.80;;;2.70;;
8622;SDS011;4349;47.552;8.904;2023-04-26T02:31:41;2.53;;;2.43;;
8622;SDS011;4349;47.552;8.904;2023-04-26T02:34:11;2.43;;;2.33;;
8622;SDS011;4349;47.552;8.904;2023-04-26T02:36:39;2.70;;;2.60;;
8622;SDS011;4349;47.552;8.904;2023-04-26T02:39:06;2.57;;;2.47;;
8622;SDS011;4349;47.552;8.904;2023-04-26T02:41:34;2.50;;;2.40;;
8622;SDS011;4349;47.552;8.904;2023-04-26T02:44:01;2.87;;;2.60;;
8622;SDS011;4349;47.552;8.904;2023-04-26T02:46:29;2.60;;;2.40;;
8622;SDS011;4349;47.552;8.904;2023-04-26T02:48:58;2.47;;;2.40;;
8622;SDS011;4349;47.552;8.904;2023-04-26T02:51:27;2.60;;;2.50;;
8622;SDS011;4349;47.552;8.904;2023-04-26T02:53:54;2.60;;;2.50;;
8622;SDS011;4349;47.552;8.904;2023-04-26T02:56:23;2.67;;;2.57;;
8622;SDS011;4349;47.552;8.904;2023-04-26T02:58:50;2.90;;;2.80;;
8622;SDS011;4349;47.552;8.904;2023-04-26T03:01:18;2.90;;;2.80;;
8622;SDS011;4349;47.552;8.904;2023-04-26T03:03:46;2.70;;;2.60;;
8622;SDS011;4349;47.552;8.904;2023-04-26T03:06:13;2.80;;;2.70;;
8622;SDS011;4349;47.552;8.904;2023-04-26T03:08:42;2.90;;;2.80;;
8622;SDS011;4349;47.552;8.904;2023-04-26T03:11:10;2.67;;;2.57;;
8622;SDS011;4349;47.552;8.904;2023-04-26T03:13:37;3.10;;;2.77;;
8622;SDS011;4349;47.552;8.904;2023-04-26T03:16:05;2.83;;;2.73;;
8622;SDS011;4349;47.552;8.904;2023-04-26T03:18:33;2.63;;;2.53;;
8622;SDS011;4349;47.552;8.904;2023-04-26T03:21:01;2.70;;;2.60;;
8622;SDS011;4349;47.552;8.904;2023-04-26T03:23:29;2.70;;;2.50;;
8622;SDS011;4349;47.552;8.904;2023-04-26T03:25:57;2.43;;;2.33;;
8622;SDS011;4349;47.552;8.904;2023-04-26T03:28:26;2.30;;;2.20;;
8622;SDS011;4349;47.552;8.904;2023-04-26T03:30:54;2.60;;;2.50;;
8622;SDS011;4349;47.552;8.904;2023-04-26T03:33:21;2.40;;;2.30;;
8622;SDS011;4349;47.552;8.904;2023-04-26T03:35:49;2.63;;;2.53;;
8622;SDS011;4349;47.552;8.904;2023-04-26T03:38:16;2.90;;;2.80;;
8622;SDS011;4349;47.552;8.904;2023-04-26T03:40:44;2.67;;;2.57;;
8622;SDS011;4349;47.552;8.904;2023-04-26T03:43:13;2.60;;;2.50;;
8622;SDS011;4349;47.552;8.904;2023-04-26T03:45:40;2.43;;;2.33;;
8622;SDS011;4349;47.552;8.904;2023-04-26T03:48:08;3.43;;;3.23;;
8622;SDS011;4349;47.552;8.904;2023-04-26T03:50:36;3.00;;;2.90;;
8622;SDS011;4349;47.552;8.904;2023-04-26T03:53:04;3.10;;;3.00;;
8622;SDS011;4349;47.552;8.904;2023-04-26T03:55:32;2.97;;;2.80;;
8622;SDS011;4349;47.552;8.904;2023-04-26T03:57:59;3.17;;;3.07;;
8622;SDS011;4349;47.552;8.904;2023-04-26T04:00:30;3.47;;;3.33;;
8622;SDS011;4349;47.552;8.904;2023-04-26T04:02:57;3.27;;;3.07;;
8622;SDS011;4349;47.552;8.904;2023-04-26T04:05:25;3.50;;;3.30;;
8622;SDS011;4349;47.552;8.904;2023-04-26T04:07:53;3.53;;;3.37;;
8622;SDS011;4349;47.552;8.904;2023-04-26T04:10:21;4.20;;;3.90;;
8622;SDS011;4349;47.552;8.904;2023-04-26T04:12:49;4.27;;;3.97;;
8622;SDS011;4349;47.552;8.904;2023-04-26T04:15:17;3.97;;;3.67;;
8622;SDS011;4349;47.552;8.904;2023-04-26T04:17:47;4.30;;;4.00;;
8622;SDS011;4349;47.552;8.904;2023-04-26T04:20:14;3.43;;;3.23;;
8622;SDS011;4349;47.552;8.904;2023-04-26T04:22:42;2.73;;;2.63;;
8622;SDS011;4349;47.552;8.904;2023-04-26T04:25:09;2.60;;;2.50;;
8622;SDS011;4349;47.552;8.904;2023-04-26T04:27:38;2.50;;;2.40;;
8622;SDS011;4349;47.552;8.904;2023-04-26T04:30:08;2.63;;;2.53;;
8622;SDS011;4349;47.552;8.904;2023-04-26T04:32:35;2.50;;;2.40;;
8622;SDS011;4349;47.552;8.904;2023-04-26T04:35:06;2.17;;;2.17;;
8622;SDS011;4349;47.552;8.904;2023-04-26T04:37:33;2.50;;;2.40;;
8622;SDS011;4349;47.552;8.904;2023-04-26T04:40:01;2.07;;;2.07;;
8622;SDS011;4349;47.552;8.904;2023-04-26T04:42:32;2.40;;;2.30;;
8622;SDS011;4349;47.552;8.904;2023-04-26T04:45:01;2.97;;;2.77;;
8622;SDS011;4349;47.552;8.904;2023-04-26T04:47:31;2.70;;;2.60;;
8622;SDS011;4349;47.552;8.904;2023-04-26T04:49:59;2.93;;;2.70;;
8622;SDS011;4349;47.552;8.904;2023-04-26T04:52:28;2.57;;;2.47;;
8622;SDS011;4349;47.552;8.904;2023-04-26T04:54:55;2.60;;;2.50;;
8622;SDS011;4349;47.552;8.904;2023-04-26T04:57:23;4.00;;;2.53;;
8622;SDS011;4349;47.552;8.904;2023-04-26T04:59:50;3.33;;;3.13;;
8622;SDS011;4349;47.552;8.904;2023-04-26T05:02:18;7.30;;;2.90;;
8622;SDS011;4349;47.552;8.904;2023-04-26T05:04:46;4.63;;;2.90;;
8622;SDS011;4349;47.552;8.904;2023-04-26T05:07:14;7.50;;;2.80;;
8622;SDS011;4349;47.552;8.904;2023-04-26T05:09:45;8.83;;;2.87;;
8622;SDS011;4349;47.552;8.904;2023-04-26T05:12:12;3.90;;;3.00;;
8622;SDS011;4349;47.552;8.904;2023-04-26T05:14:39;22.03;;;3.17;;
8622;SDS011;4349;47.552;8.904;2023-04-26T05:17:07;3.10;;;2.90;;
8622;SDS011;4349;47.552;8.904;2023-04-26T05:19:35;3.77;;;3.00;;
8622;SDS011;4349;47.552;8.904;2023-04-26T05:22:02;3.03;;;2.83;;
8622;SDS011;4349;47.552;8.904;2023-04-26T05:24:30;8.67;;;3.10;;
8622;SDS011;4349;47.552;8.904;2023-04-26T05:26:59;3.43;;;3.10;;
8622;SDS011;4349;47.552;8.904;2023-04-26T05:29:49;6.97;;;3.97;;
8622;SDS011;4349;47.552;8.904;2023-04-26T05:32:25;3.90;;;2.70;;
8622;SDS011;4349;47.552;8.904;2023-04-26T05:35:11;2.87;;;2.77;;
8622;SDS011;4349;47.552;8.904;2023-04-26T05:37:39;2.80;;;2.70;;
8622;SDS011;4349;47.552;8.904;2023-04-26T05:40:07;2.83;;;2.73;;
8622;SDS011;4349;47.552;8.904;2023-04-26T05:42:39;3.20;;;3.10;;
8622;SDS011;4349;47.552;8.904;2023-04-26T05:45:08;3.33;;;3.20;;
8622;SDS011;4349;47.552;8.904;2023-04-26T05:47:36;9.20;;;3.33;;
8622;SDS011;4349;47.552;8.904;2023-04-26T05:50:05;7.53;;;3.20;;
8622;SDS011;4349;47.552;8.904;2023-04-26T05:52:32;5.47;;;3.20;;
8622;SDS011;4349;47.552;8.904;2023-04-26T05:55:00;3.60;;;3.30;;
8622;SDS011;4349;47.552;8.904;2023-04-26T05:57:29;3.67;;;3.27;;
8622;SDS011;4349;47.552;8.904;2023-04-26T05:59:58;3.33;;;3.13;;
8622;SDS011;4349;47.552;8.904;2023-04-26T06:02:26;3.70;;;3.60;;
8622;SDS011;4349;47.552;8.904;2023-04-26T06:04:54;3.40;;;3.30;;
8622;SDS011;4349;47.552;8.904;2023-04-26T06:07:22;3.63;;;3.33;;
8622;SDS011;4349;47.552;8.904;2023-04-26T06:09:49;3.70;;;3.43;;
8622;SDS011;4349;47.552;8.904;2023-04-26T06:12:17;3.60;;;3.50;;
8622;SDS011;4349;47.552;8.904;2023-04-26T06:14:45;3.57;;;3.43;;
8622;SDS011;4349;47.552;8.904;2023-04-26T06:17:19;3.73;;;3.53;;
8622;SDS011;4349;47.552;8.904;2023-04-26T06:19:47;3.97;;;3.77;;
8622;SDS011;4349;47.552;8.904;2023-04-26T06:22:14;3.80;;;3.60;;
8622;SDS011;4349;47.552;8.904;2023-04-26T06:24:42;4.60;;;4.20;;
8622;SDS011;4349;47.552;8.904;2023-04-26T06:27:09;5.07;;;4.77;;
8622;SDS011;4349;47.552;8.904;2023-04-26T06:29:39;5.20;;;4.80;;
8622;SDS011;4349;47.552;8.904;2023-04-26T06:32:06;5.30;;;4.67;;
8622;SDS011;4349;47.552;8.904;2023-04-26T06:34:35;6.77;;;6.23;;
8622;SDS011;4349;47.552;8.904;2023-04-26T06:37:04;7.50;;;6.80;;
8622;SDS011;4349;47.552;8.904;2023-04-26T06:39:39;8.73;;;8.03;;
8622;SDS011;4349;47.552;8.904;2023-04-26T06:42:27;7.90;;;7.20;;
8622;SDS011;4349;47.552;8.904;2023-04-26T06:45:22;8.63;;;7.47;;
8622;SDS011;4349;47.552;8.904;2023-04-26T06:48:03;8.17;;;7.37;;
8622;SDS011;4349;47.552;8.904;2023-04-26T06:50:41;8.00;;;6.97;;
8622;SDS011;4349;47.552;8.904;2023-04-26T06:53:10;7.63;;;6.80;;
8622;SDS011;4349;47.552;8.904;2023-04-26T06:55:38;7.87;;;7.13;;
8622;SDS011;4349;47.552;8.904;2023-04-26T06:58:05;11.93;;;7.47;;
8622;SDS011;4349;47.552;8.904;2023-04-26T07:00:32;8.27;;;7.17;;
8622;SDS011;4349;47.552;8.904;2023-04-26T07:03:00;8.30;;;7.50;;
8622;SDS011;4349;47.552;8.904;2023-04-26T07:05:28;8.87;;;7.70;;
8622;SDS011;4349;47.552;8.904;2023-04-26T07:07:56;9.40;;;7.57;;
8622;SDS011;4349;47.552;8.904;2023-04-26T07:10:24;8.07;;;7.40;;
8622;SDS011;4349;47.552;8.904;2023-04-26T07:12:53;7.90;;;7.10;;
8622;SDS011;4349;47.552;8.904;2023-04-26T07:15:21;8.70;;;7.43;;
8622;SDS011;4349;47.552;8.904;2023-04-26T07:17:48;7.40;;;6.80;;
8622;SDS011;4349;47.552;8.904;2023-04-26T07:20:16;7.10;;;6.50;;
8622;SDS011;4349;47.552;8.904;2023-04-26T07:22:45;7.67;;;6.97;;
8622;SDS011;4349;47.552;8.904;2023-04-26T07:25:14;7.57;;;6.87;;
8622;SDS011;4349;47.552;8.904;2023-04-26T07:27:41;7.77;;;6.77;;
8622;SDS011;4349;47.552;8.904;2023-04-26T07:30:09;7.10;;;6.50;;
8622;SDS011;4349;47.552;8.904;2023-04-26T07:32:36;8.20;;;7.43;;
8622;SDS011;4349;47.552;8.904;2023-04-26T07:35:05;6.93;;;6.23;;
8622;SDS011;4349;47.552;8.904;2023-04-26T07:37:33;6.97;;;6.37;;
8622;SDS011;4349;47.552;8.904;2023-04-26T07:40:01;6.97;;;6.47;;
8622;SDS011;4349;47.552;8.904;2023-04-26T07:42:31;6.90;;;6.20;;
8622;SDS011;4349;47.552;8.904;2023-04-26T07:44:58;6.30;;;5.80;;
8622;SDS011;4349;47.552;8.904;2023-04-26T07:47:26;6.30;;;5.70;;
8622;SDS011;4349;47.552;8.904;2023-04-26T07:49:53;6.57;;;5.90;;
8622;SDS011;4349;47.552;8.904;2023-04-26T07:52:21;6.50;;;5.97;;
8622;SDS011;4349;47.552;8.904;2023-04-26T07:54:48;6.57;;;5.97;;
8622;SDS011;4349;47.552;8.904;2023-04-26T07:57:15;6.20;;;5.70;;
8622;SDS011;4349;47.552;8.904;2023-04-26T07:59:44;6.33;;;5.83;;
8622;SDS011;4349;47.552;8.904;2023-04-26T08:02:12;5.73;;;5.23;;
8622;SDS011;4349;47.552;8.904;2023-04-26T08:04:42;6.40;;;5.90;;
8622;SDS011;4349;47.552;8.904;2023-04-26T08:07:14;6.37;;;5.87;;
8622;SDS011;4349;47.552;8.904;2023-04-26T08:09:41;6.93;;;6.17;;
8622;SDS011;4349;47.552;8.904;2023-04-26T08:12:09;6.40;;;5.80;;
8622;SDS011;4349;47.552;8.904;2023-04-26T08:14:37;6.60;;;6.00;;
8622;SDS011;4349;47.552;8.904;2023-04-26T08:17:06;6.67;;;6.10;;
8622;SDS011;4349;47.552;8.904;2023-04-26T08:19:34;7.87;;;7.17;;
8622;SDS011;4349;47.552;8.904;2023-04-26T08:22:02;7.87;;;7.03;;
8622;SDS011;4349;47.552;8.904;2023-04-26T08:24:30;7.23;;;6.57;;
8622;SDS011;4349;47.552;8.904;2023-04-26T08:26:58;7.57;;;6.87;;
8622;SDS011;4349;47.552;8.904;2023-04-26T08:29:26;6.80;;;6.20;;
8622;SDS011;4349;47.552;8.904;2023-04-26T08:31:54;6.57;;;5.97;;
8622;SDS011;4349;47.552;8.904;2023-04-26T08:34:23;6.23;;;5.80;;
8622;SDS011;4349;47.552;8.904;2023-04-26T08:36:50;6.30;;;5.80;;
8622;SDS011;4349;47.552;8.904;2023-04-26T08:39:24;6.67;;;6.00;;
8622;SDS011;4349;47.552;8.904;2023-04-26T08:42:19;5.60;;;5.20;;
8622;SDS011;4349;47.552;8.904;2023-04-26T08:45:09;5.30;;;4.90;;
8622;SDS011;4349;47.552;8.904;2023-04-26T08:47:38;4.53;;;4.10;;
8622;SDS011;4349;47.552;8.904;2023-04-26T08:50:09;4.73;;;4.43;;
8622;SDS011;4349;47.552;8.904;2023-04-26T08:52:36;4.23;;;3.90;;
8622;SDS011;4349;47.552;8.904;2023-04-26T08:55:06;5.00;;;4.63;;
8622;SDS011;4349;47.552;8.904;2023-04-26T08:57:34;5.80;;;5.00;;
8622;SDS011;4349;47.552;8.904;2023-04-26T09:00:02;5.30;;;4.97;;
8622;SDS011;4349;47.552;8.904;2023-04-26T09:02:35;11.40;;;4.40;;
8622;SDS011;4349;47.552;8.904;2023-04-26T09:05:03;4.70;;;4.40;;
8622;SDS011;4349;47.552;8.904;2023-04-26T09:07:34;5.30;;;4.87;;
8622;SDS011;4349;47.552;8.904;2023-04-26T09:10:02;5.47;;;5.07;;
8622;SDS011;4349;47.552;8.904;2023-04-26T09:12:31;4.80;;;4.50;;
8622;SDS011;4349;47.552;8.904;2023-04-26T09:14:58;4.90;;;4.60;;
8622;SDS011;4349;47.552;8.904;2023-04-26T09:17:26;4.97;;;4.67;;
8622;SDS011;4349;47.552;8.904;2023-04-26T09:19:54;4.20;;;4.00;;
8622;SDS011;4349;47.552;8.904;2023-04-26T09:22:31;4.57;;;4.27;;
8622;SDS011;4349;47.552;8.904;2023-04-26T09:25:00;4.23;;;3.93;;
8622;SDS011;4349;47.552;8.904;2023-04-26T09:27:32;4.53;;;4.33;;
8622;SDS011;4349;47.552;8.904;2023-04-26T09:30:02;4.20;;;3.90;;
8622;SDS011;4349;47.552;8.904;2023-04-26T09:32:47;4.00;;;3.70;;
8622;SDS011;4349;47.552;8.904;2023-04-26T09:38:00;4.53;;;4.23;;
8622;SDS011;4349;47.552;8.904;2023-04-26T09:40:38;5.10;;;4.80;;
8622;SDS011;4349;47.552;8.904;2023-04-26T09:43:11;5.53;;;5.13;;
8622;SDS011;4349;47.552;8.904;2023-04-26T09:45:43;5.33;;;4.80;;
8622;SDS011;4349;47.552;8.904;2023-04-26T09:48:11;5.20;;;4.80;;
8622;SDS011;4349;47.552;8.904;2023-04-26T09:50:38;5.10;;;4.70;;
8622;SDS011;4349;47.552;8.904;2023-04-26T09:53:07;5.30;;;4.80;;
8622;SDS011;4349;47.552;8.904;2023-04-26T09:55:35;5.30;;;4.90;;
8622;SDS011;4349;47.552;8.904;2023-04-26T09:58:10;5.67;;;5.17;;
8622;SDS011;4349;47.552;8.904;2023-04-26T10:00:37;4.40;;;4.10;;
8622;SDS011;4349;47.552;8.904;2023-04-26T10:03:07;5.47;;;4.83;;
8622;SDS011;4349;47.552;8.904;2023-04-26T10:05:35;5.00;;;4.70;;
8622;SDS011;4349;47.552;8.904;2023-04-26T10:08:04;6.10;;;5.60;;
8622;SDS011;4349;47.552;8.904;2023-04-26T10:10:32;5.57;;;5.17;;
8622;SDS011;4349;47.552;8.904;2023-04-26T10:12:59;5.07;;;4.67;;
8622;SDS011;4349;47.552;8.904;2023-04-26T10:15:28;5.37;;;4.97;;
8622;SDS011;4349;47.552;8.904;2023-04-26T10:17:56;5.27;;;4.87;;
8622;SDS011;4349;47.552;8.904;2023-04-26T10:20:23;4.47;;;4.17;;
8622;SDS011;4349;47.552;8.904;2023-04-26T10:22:53;4.83;;;4.43;;
8622;SDS011;4349;47.552;8.904;2023-04-26T10:25:36;4.67;;;4.30;;
8622;SDS011;4349;47.552;8.904;2023-04-26T10:28:04;4.47;;;4.13;;
8622;SDS011;4349;47.552;8.904;2023-04-26T10:30:34;4.27;;;3.90;;
8622;SDS011;4349;47.552;8.904;2023-04-26T10:33:19;3.73;;;3.37;;
8622;SDS011;4349;47.552;8.904;2023-04-26T10:36:01;4.03;;;3.70;;
8622;SDS011;4349;47.552;8.904;2023-04-26T10:38:30;3.50;;;3.30;;
8622;SDS011;4349;47.552;8.904;2023-04-26T10:43:43;3.53;;;3.33;;
8622;SDS011;4349;47.552;8.904;2023-04-26T10:48:55;3.30;;;3.10;;
8622;SDS011;4349;47.552;8.904;2023-04-26T10:51:22;3.73;;;3.53;;
8622;SDS011;4349;47.552;8.904;2023-04-26T10:53:59;4.00;;;3.60;;
8622;SDS011;4349;47.552;8.904;2023-04-26T10:59:18;3.37;;;3.17;;
8622;SDS011;4349;47.552;8.904;2023-04-26T11:01:50;3.27;;;2.90;;
8622;SDS011;4349;47.552;8.904;2023-04-26T11:04:19;3.50;;;3.20;;
8622;SDS011;4349;47.552;8.904;2023-04-26T11:06:47;3.57;;;3.27;;
8622;SDS011;4349;47.552;8.904;2023-04-26T11:09:31;3.50;;;3.20;;
8622;SDS011;4349;47.552;8.904;2023-04-26T11:11:59;3.30;;;3.10;;
8622;SDS011;4349;47.552;8.904;2023-04-26T11:14:27;3.30;;;3.10;;
8622;SDS011;4349;47.552;8.904;2023-04-26T11:16:55;3.00;;;2.90;;
8622;SDS011;4349;47.552;8.904;2023-04-26T11:19:24;3.10;;;3.00;;
8622;SDS011;4349;47.552;8.904;2023-04-26T11:21:52;3.47;;;3.27;;
8622;SDS011;4349;47.552;8.904;2023-04-26T11:24:24;3.47;;;3.27;;
8622;SDS011;4349;47.552;8.904;2023-04-26T11:26:52;5.90;;;2.40;;
8622;SDS011;4349;47.552;8.904;2023-04-26T11:29:19;3.07;;;2.67;;
8622;SDS011;4349;47.552;8.904;2023-04-26T11:31:50;2.90;;;2.57;;
8622;SDS011;4349;47.552;8.904;2023-04-26T11:34:21;2.10;;;2.00;;
8622;SDS011;4349;47.552;8.904;2023-04-26T11:36:51;2.30;;;2.20;;
8622;SDS011;4349;47.552;8.904;2023-04-26T11:39:19;2.80;;;2.20;;
8622;SDS011;4349;47.552;8.904;2023-04-26T11:41:47;3.63;;;2.60;;
8622;SDS011;4349;47.552;8.904;2023-04-26T11:44:18;2.60;;;2.40;;
8622;SDS011;4349;47.552;8.904;2023-04-26T11:46:46;2.00;;;1.90;;
8622;SDS011;4349;47.552;8.904;2023-04-26T11:49:14;2.20;;;2.10;;
8622;SDS011;4349;47.552;8.904;2023-04-26T11:51:42;4.10;;;2.30;;
8622;SDS011;4349;47.552;8.904;2023-04-26T11:54:12;2.30;;;2.10;;
8622;SDS011;4349;47.552;8.904;2023-04-26T11:56:52;2.20;;;2.10;;
8622;SDS011;4349;47.552;8.904;2023-04-26T11:59:22;2.40;;;2.20;;
8622;SDS011;4349;47.552;8.904;2023-04-26T12:01:50;1.90;;;1.90;;
8622;SDS011;4349;47.552;8.904;2023-04-26T12:04:18;3.17;;;1.90;;
8622;SDS011;4349;47.552;8.904;2023-04-26T12:06:46;1.93;;;1.93;;
8622;SDS011;4349;47.552;8.904;2023-04-26T12:09:16;2.00;;;1.90;;
8622;SDS011;4349;47.552;8.904;2023-04-26T12:11:52;2.10;;;2.00;;
8622;SDS011;4349;47.552;8.904;2023-04-26T12:14:20;3.93;;;2.30;;
8622;SDS011;4349;47.552;8.904;2023-04-26T12:16:48;2.00;;;1.90;;
8622;SDS011;4349;47.552;8.904;2023-04-26T12:19:15;2.53;;;2.33;;
8622;SDS011;4349;47.552;8.904;2023-04-26T12:21:43;2.10;;;2.00;;
8622;SDS011;4349;47.552;8.904;2023-04-26T12:24:24;3.77;;;2.43;;
8622;SDS011;4349;47.552;8.904;2023-04-26T12:26:52;2.00;;;1.90;;
8622;SDS011;4349;47.552;8.904;2023-04-26T12:29:19;2.17;;;2.07;;
8622;SDS011;4349;47.552;8.904;2023-04-26T12:31:46;2.47;;;2.27;;
8622;SDS011;4349;47.552;8.904;2023-04-26T12:34:14;1.93;;;1.83;;
8622;SDS011;4349;47.552;8.904;2023-04-26T12:36:41;2.00;;;1.90;;
8622;SDS011;4349;47.552;8.904;2023-04-26T12:39:09;3.43;;;2.57;;
8622;SDS011;4349;47.552;8.904;2023-04-26T12:41:40;1.80;;;1.70;;
8622;SDS011;4349;47.552;8.904;2023-04-26T12:44:07;2.60;;;2.00;;
8622;SDS011;4349;47.552;8.904;2023-04-26T12:46:35;2.30;;;1.90;;
8622;SDS011;4349;47.552;8.904;2023-04-26T12:49:02;2.63;;;1.90;;
8622;SDS011;4349;47.552;8.904;2023-04-26T12:51:30;1.97;;;1.70;;
8622;SDS011;4349;47.552;8.904;2023-04-26T12:53:58;2.07;;;1.97;;
8622;SDS011;4349;47.552;8.904;2023-04-26T12:56:40;4.17;;;1.70;;
8622;SDS011;4349;47.552;8.904;2023-04-26T12:59:10;2.30;;;1.70;;
8622;SDS011;4349;47.552;8.904;2023-04-26T13:01:37;2.27;;;1.97;;
8622;SDS011;4349;47.552;8.904;2023-04-26T13:04:05;2.10;;;1.90;;
8622;SDS011;4349;47.552;8.904;2023-04-26T13:06:33;2.83;;;1.93;;
8622;SDS011;4349;47.552;8.904;2023-04-26T13:09:01;1.77;;;1.67;;
8622;SDS011;4349;47.552;8.904;2023-04-26T13:11:28;1.87;;;1.77;;
8622;SDS011;4349;47.552;8.904;2023-04-26T13:13:57;1.97;;;1.80;;
8622;SDS011;4349;47.552;8.904;2023-04-26T13:16:25;1.90;;;1.80;;
8622;SDS011;4349;47.552;8.904;2023-04-26T13:18:53;1.90;;;1.80;;
8622;SDS011;4349;47.552;8.904;2023-04-26T13:21:21;2.70;;;1.70;;
8622;SDS011;4349;47.552;8.904;2023-04-26T13:23:48;2.27;;;1.77;;
8622;SDS011;4349;47.552;8.904;2023-04-26T13:26:16;2.60;;;1.83;;
8622;SDS011;4349;47.552;8.904;2023-04-26T13:28:43;4.37;;;1.70;;
8622;SDS011;4349;47.552;8.904;2023-04-26T13:31:13;2.40;;;2.10;;
8622;SDS011;4349;47.552;8.904;2023-04-26T13:33:43;3.53;;;2.07;;
8622;SDS011;4349;47.552;8.904;2023-04-26T13:36:12;2.67;;;2.00;;
8622;SDS011;4349;47.552;8.904;2023-04-26T13:38:40;2.60;;;1.80;;
8622;SDS011;4349;47.552;8.904;2023-04-26T13:41:08;2.10;;;2.00;;
8622;SDS011;4349;47.552;8.904;2023-04-26T13:43:35;3.53;;;2.20;;
8622;SDS011;4349;47.552;8.904;2023-04-26T13:46:03;3.13;;;1.80;;
8622;SDS011;4349;47.552;8.904;2023-04-26T13:48:32;3.80;;;2.03;;
8622;SDS011;4349;47.552;8.904;2023-04-26T13:50:59;2.00;;;1.90;;
8622;SDS011;4349;47.552;8.904;2023-04-26T13:53:29;2.07;;;1.87;;
8622;SDS011;4349;47.552;8.904;2023-04-26T13:55:57;2.47;;;2.30;;
8622;SDS011;4349;47.552;8.904;2023-04-26T13:58:24;2.30;;;2.20;;
8622;SDS011;4349;47.552;8.904;2023-04-26T14:00:51;3.60;;;2.53;;
8622;SDS011;4349;47.552;8.904;2023-04-26T14:03:19;2.37;;;2.27;;
8622;SDS011;4349;47.552;8.904;2023-04-26T14:05:48;2.50;;;2.10;;
8622;SDS011;4349;47.552;8.904;2023-04-26T14:08:16;2.00;;;1.90;;
8622;SDS011;4349;47.552;8.904;2023-04-26T14:10:43;2.37;;;2.17;;
8622;SDS011;4349;47.552;8.904;2023-04-26T14:13:10;2.13;;;2.03;;
8622;SDS011;4349;47.552;8.904;2023-04-26T14:15:38;3.17;;;2.20;;
8622;SDS011;4349;47.552;8.904;2023-04-26T14:18:05;2.20;;;2.00;;
8622;SDS011;4349;47.552;8.904;2023-04-26T14:20:33;3.07;;;2.10;;
8622;SDS011;4349;47.552;8.904;2023-04-26T14:23:02;6.37;;;3.80;;
8622;SDS011;4349;47.552;8.904;2023-04-26T14:25:30;3.20;;;2.30;;
8622;SDS011;4349;47.552;8.904;2023-04-26T14:27:57;2.37;;;2.00;;
8622;SDS011;4349;47.552;8.904;2023-04-26T14:30:24;2.50;;;2.30;;
8622;SDS011;4349;47.552;8.904;2023-04-26T14:32:52;1.87;;;1.80;;
8622;SDS011;4349;47.552;8.904;2023-04-26T14:35:19;2.20;;;2.10;;
8622;SDS011;4349;47.552;8.904;2023-04-26T14:37:47;2.10;;;2.00;;
8622;SDS011;4349;47.552;8.904;2023-04-26T14:40:16;1.77;;;1.67;;
8622;SDS011;4349;47.552;8.904;2023-04-26T14:42:43;2.17;;;1.93;;
8622;SDS011;4349;47.552;8.904;2023-04-26T14:45:11;4.77;;;2.20;;
8622;SDS011;4349;47.552;8.904;2023-04-26T14:47:39;2.07;;;1.97;;
8622;SDS011;4349;47.552;8.904;2023-04-26T14:50:07;2.10;;;1.90;;
8622;SDS011;4349;47.552;8.904;2023-04-26T14:52:35;1.90;;;1.80;;
8622;SDS011;4349;47.552;8.904;2023-04-26T14:55:03;2.70;;;2.50;;
8622;SDS011;4349;47.552;8.904;2023-04-26T14:57:32;2.20;;;2.03;;
8622;SDS011;4349;47.552;8.904;2023-04-26T14:59:59;2.47;;;2.27;;
8622;SDS011;4349;47.552;8.904;2023-04-26T15:02:32;2.00;;;1.90;;
8622;SDS011;4349;47.552;8.904;2023-04-26T15:04:59;2.20;;;2.10;;
8622;SDS011;4349;47.552;8.904;2023-04-26T15:07:28;1.97;;;1.90;;
8622;SDS011;4349;47.552;8.904;2023-04-26T15:09:58;2.40;;;2.20;;
8622;SDS011;4349;47.552;8.904;2023-04-26T15:12:27;2.03;;;1.93;;
8622;SDS011;4349;47.552;8.904;2023-04-26T15:14:55;2.13;;;1.90;;
8622;SDS011;4349;47.552;8.904;2023-04-26T15:17:23;1.97;;;1.87;;
8622;SDS011;4349;47.552;8.904;2023-04-26T15:19:50;4.60;;;2.00;;
8622;SDS011;4349;47.552;8.904;2023-04-26T15:22:18;2.93;;;1.90;;
8622;SDS011;4349;47.552;8.904;2023-04-26T15:24:45;2.50;;;2.30;;
8622;SDS011;4349;47.552;8.904;2023-04-26T15:27:14;2.47;;;2.30;;
8622;SDS011;4349;47.552;8.904;2023-04-26T15:29:42;2.10;;;2.00;;
8622;SDS011;4349;47.552;8.904;2023-04-26T15:32:10;2.43;;;2.20;;
8622;SDS011;4349;47.552;8.904;2023-04-26T15:34:38;2.50;;;2.30;;
8622;SDS011;4349;47.552;8.904;2023-04-26T15:37:08;3.00;;;2.37;;